Time;durP1;ratioP1;P1;durP2;ratioP2;P2;SDS_P1;SDS_P2;PMS_P1;PMS_P2;Temp;Humidity;BMP_temperature;BMP_pressure;BME280_temperature;BME280_humidity;BME280_pressure;Samples;Min_cycle;Max_cycle;Signal;HPM_P1;HPM_P2
2023/09/29 00:00:49;;;;;;;28.27;8.13;;;;;;;;;;5088077;28;20024;-75
2023/09/29 00:03:15;;;;;;;18.48;6.63;;;;;;;;;;5081539;28;20027;-75
2023/09/29 00:05:44;;;;;;;18.27;6.43;;;;;;;;;;5085184;28;20043;-74
2023/09/29 00:08:17;;;;;;;22.38;7.00;;;;;;;;;;5078043;28;20372;-74
2023/09/29 00:10:45;;;;;;;17.88;6.38;;;;;;;;;;5078111;28;20020;-74
2023/09/29 00:13:11;;;;;;;20.50;6.82;;;;;;;;;;5081721;28;20028;-75
2023/09/29 00:15:37;;;;;;;21.08;7.40;;;;;;;;;;5080909;28;20101;-74
2023/09/29 00:18:05;;;;;;;19.60;7.07;;;;;;;;;;5070976;28;20406;-74
2023/09/29 00:20:31;;;;;;;19.48;6.35;;;;;;;;;;5072248;28;20039;-74
2023/09/29 00:22:58;;;;;;;23.75;6.95;;;;;;;;;;5073624;28;20056;-75
2023/09/29 00:25:25;;;;;;;22.83;7.15;;;;;;;;;;5073544;28;20020;-74
2023/09/29 00:27:51;;;;;;;18.13;6.97;;;;;;;;;;5075019;28;20027;-75
2023/09/29 00:30:17;;;;;;;20.85;7.25;;;;;;;;;;5075468;28;20039;-75
2023/09/29 00:32:53;;;;;;;17.75;6.68;;;;;;;;;;5075784;28;20029;-75
2023/09/29 00:35:24;;;;;;;17.45;6.63;;;;;;;;;;5074871;28;20031;-75
2023/09/29 00:37:51;;;;;;;20.73;7.32;;;;;;;;;;5076211;28;20020;-77
2023/09/29 00:40:17;;;;;;;22.70;7.25;;;;;;;;;;5074646;28;20021;-76
2023/09/29 00:42:44;;;;;;;19.58;7.72;;;;;;;;;;5075698;28;20119;-77
2023/09/29 00:45:10;;;;;;;27.85;8.25;;;;;;;;;;5080338;28;20042;-74
2023/09/29 00:47:37;;;;;;;20.45;7.30;;;;;;;;;;5080476;28;20104;-76
2023/09/29 00:50:09;;;;;;;22.00;8.05;;;;;;;;;;5079770;28;20103;-74
2023/09/29 00:52:37;;;;;;;26.38;8.00;;;;;;;;;;5078271;28;20073;-75
2023/09/29 00:55:05;;;;;;;20.42;7.93;;;;;;;;;;5073233;28;20024;-75
2023/09/29 00:57:33;;;;;;;20.60;7.93;;;;;;;;;;5072195;28;20027;-72
2023/09/29 01:00:00;;;;;;;17.80;7.65;;;;;;;;;;5071259;28;20017;-74
2023/09/29 01:02:27;;;;;;;23.20;7.28;;;;;;;;;;5071291;28;20107;-72
2023/09/29 01:04:53;;;;;;;20.15;7.15;;;;;;;;;;5071620;28;20472;-72
2023/09/29 01:07:19;;;;;;;23.45;7.03;;;;;;;;;;5071857;28;20028;-73
2023/09/29 01:09:45;;;;;;;19.67;7.65;;;;;;;;;;5072315;28;20096;-71
2023/09/29 01:12:25;;;;;;;16.17;6.63;;;;;;;;;;5072017;28;20082;-72
2023/09/29 01:14:51;;;;;;;25.55;7.13;;;;;;;;;;5072034;28;20029;-73
2023/09/29 01:17:18;;;;;;;15.70;7.30;;;;;;;;;;5071807;28;20463;-73
2023/09/29 01:19:44;;;;;;;17.50;7.03;;;;;;;;;;5071802;28;20028;-74
2023/09/29 01:22:11;;;;;;;13.70;6.57;;;;;;;;;;5072088;28;20041;-72
2023/09/29 01:24:37;;;;;;;16.25;7.47;;;;;;;;;;5070875;28;20025;-72
2023/09/29 01:27:03;;;;;;;25.45;8.13;;;;;;;;;;5072515;28;20024;-75
2023/09/29 01:29:30;;;;;;;17.65;6.65;;;;;;;;;;5073031;28;20063;-75
2023/09/29 01:31:56;;;;;;;23.58;7.45;;;;;;;;;;5072118;28;20339;-74
2023/09/29 01:34:24;;;;;;;19.38;7.60;;;;;;;;;;5072180;28;20438;-74
2023/09/29 01:36:50;;;;;;;22.95;7.82;;;;;;;;;;5073809;28;20074;-74
2023/09/29 01:39:16;;;;;;;19.42;7.55;;;;;;;;;;5073924;28;20036;-74
2023/09/29 01:41:43;;;;;;;21.63;7.05;;;;;;;;;;5073323;28;20537;-75
2023/09/29 01:44:10;;;;;;;17.73;7.13;;;;;;;;;;5057768;28;20036;-75
2023/09/29 01:46:37;;;;;;;17.33;6.90;;;;;;;;;;5072621;28;20021;-74
2023/09/29 01:49:02;;;;;;;21.05;7.20;;;;;;;;;;5059007;28;20025;-75
2023/09/29 01:51:29;;;;;;;15.05;6.60;;;;;;;;;;5055828;28;20032;-75
2023/09/29 01:53:55;;;;;;;15.35;6.60;;;;;;;;;;5063028;28;20018;-74
2023/09/29 01:56:21;;;;;;;17.40;7.05;;;;;;;;;;5074798;28;20018;-73
2023/09/29 01:58:50;;;;;;;13.45;7.00;;;;;;;;;;5075314;28;20045;-72
2023/09/29 02:01:16;;;;;;;18.10;7.25;;;;;;;;;;5076016;28;20052;-72
2023/09/29 02:03:45;;;;;;;17.13;6.35;;;;;;;;;;5056938;28;20029;-75
2023/09/29 02:06:11;;;;;;;17.10;7.03;;;;;;;;;;5075650;28;20500;-75
2023/09/29 02:08:37;;;;;;;17.33;7.43;;;;;;;;;;5066664;28;20041;-74
2023/09/29 02:11:04;;;;;;;14.25;7.32;;;;;;;;;;5057040;28;20029;-74
2023/09/29 02:13:30;;;;;;;17.20;7.03;;;;;;;;;;5056761;28;20042;-74
2023/09/29 02:15:56;;;;;;;16.70;7.15;;;;;;;;;;5055693;28;20056;-75
2023/09/29 02:18:22;;;;;;;17.13;6.78;;;;;;;;;;5055459;28;20068;-74
2023/09/29 02:20:48;;;;;;;12.30;6.25;;;;;;;;;;5055558;28;20043;-73
2023/09/29 02:23:14;;;;;;;17.08;7.07;;;;;;;;;;5056076;28;20119;-76
2023/09/29 02:25:41;;;;;;;13.25;6.50;;;;;;;;;;5057368;28;20075;-74
2023/09/29 02:28:11;;;;;;;15.45;6.85;;;;;;;;;;5059545;28;20107;-74
2023/09/29 02:30:38;;;;;;;16.23;7.10;;;;;;;;;;5056467;28;20601;-73
2023/09/29 02:33:04;;;;;;;17.08;7.43;;;;;;;;;;5053660;28;20017;-74
2023/09/29 02:35:30;;;;;;;18.65;7.13;;;;;;;;;;5053432;28;20029;-75
2023/09/29 02:37:56;;;;;;;15.60;6.75;;;;;;;;;;5053599;28;20055;-73
2023/09/29 02:40:23;;;;;;;16.70;7.43;;;;;;;;;;5054247;28;20096;-74
2023/09/29 02:42:49;;;;;;;15.68;6.75;;;;;;;;;;5053715;28;20017;-73
2023/09/29 02:45:17;;;;;;;15.82;6.53;;;;;;;;;;5056001;28;20017;-76
2023/09/29 02:47:46;;;;;;;18.75;7.70;;;;;;;;;;5060884;28;20024;-76
2023/09/29 02:50:13;;;;;;;17.60;7.13;;;;;;;;;;5055872;28;20113;-73
2023/09/29 02:52:39;;;;;;;20.63;7.13;;;;;;;;;;5056202;28;20036;-75
2023/09/29 02:55:07;;;;;;;22.70;7.78;;;;;;;;;;5056467;28;20111;-74
2023/09/29 02:57:33;;;;;;;20.42;7.45;;;;;;;;;;5057942;28;20430;-74
2023/09/29 02:59:59;;;;;;;16.17;7.10;;;;;;;;;;5056959;28;20070;-75
2023/09/29 03:02:25;;;;;;;22.42;9.65;;;;;;;;;;5058444;28;20029;-75
2023/09/29 03:04:51;;;;;;;21.58;9.13;;;;;;;;;;5063695;28;20113;-74
2023/09/29 03:07:18;;;;;;;16.50;6.80;;;;;;;;;;5058208;28;20392;-72
2023/09/29 03:09:44;;;;;;;17.60;6.75;;;;;;;;;;5054153;28;20060;-73
2023/09/29 03:12:10;;;;;;;16.35;6.95;;;;;;;;;;5054218;28;20100;-73
2023/09/29 03:14:36;;;;;;;18.13;7.57;;;;;;;;;;5052845;28;20543;-73
2023/09/29 03:17:02;;;;;;;16.98;7.53;;;;;;;;;;5053932;28;20121;-73
2023/09/29 03:19:30;;;;;;;17.13;7.78;;;;;;;;;;5054110;28;20052;-73
2023/09/29 03:21:58;;;;;;;17.88;7.28;;;;;;;;;;5054502;28;20028;-74
2023/09/29 03:24:24;;;;;;;12.75;7.07;;;;;;;;;;5054250;28;20025;-73
2023/09/29 03:26:51;;;;;;;21.25;8.40;;;;;;;;;;5066275;28;20051;-76
2023/09/29 03:29:17;;;;;;;15.90;6.82;;;;;;;;;;5080050;28;20029;-76
2023/09/29 03:31:43;;;;;;;21.25;7.40;;;;;;;;;;5076757;28;20100;-77
2023/09/29 03:34:10;;;;;;;16.73;7.60;;;;;;;;;;5078785;28;20039;-76
2023/09/29 03:36:36;;;;;;;21.27;7.10;;;;;;;;;;5083364;28;20024;-78
2023/09/29 03:39:05;;;;;;;22.27;7.70;;;;;;;;;;5098952;28;20029;-79
2023/09/29 03:41:31;;;;;;;21.63;7.97;;;;;;;;;;5102228;28;20036;-77
2023/09/29 03:43:57;;;;;;;20.00;8.07;;;;;;;;;;5078603;28;20070;-74
2023/09/29 03:46:24;;;;;;;22.20;7.10;;;;;;;;;;5081535;28;20028;-77
2023/09/29 03:48:50;;;;;;;19.83;8.25;;;;;;;;;;5072866;28;20070;-76
2023/09/29 03:51:25;;;;;;;19.35;7.95;;;;;;;;;;5072661;28;20033;-74
2023/09/29 03:53:55;;;;;;;18.13;7.85;;;;;;;;;;5073698;28;20029;-76
2023/09/29 03:56:24;;;;;;;20.00;8.57;;;;;;;;;;5072938;28;20028;-74
2023/09/29 03:58:50;;;;;;;19.25;7.95;;;;;;;;;;5075530;28;20017;-75
2023/09/29 04:01:17;;;;;;;19.48;7.82;;;;;;;;;;5076455;28;20048;-75
2023/09/29 04:03:43;;;;;;;20.10;8.38;;;;;;;;;;5078637;28;20054;-74
2023/09/29 04:06:09;;;;;;;18.10;7.80;;;;;;;;;;5076364;28;20032;-78
2023/09/29 04:08:35;;;;;;;18.77;8.35;;;;;;;;;;5075843;28;20403;-74
2023/09/29 04:11:01;;;;;;;20.90;8.68;;;;;;;;;;5075859;28;20024;-74
2023/09/29 04:13:27;;;;;;;21.63;7.95;;;;;;;;;;5077956;28;20024;-75
2023/09/29 04:15:53;;;;;;;19.85;9.20;;;;;;;;;;5078949;28;20036;-73
2023/09/29 04:18:20;;;;;;;23.60;9.10;;;;;;;;;;5077707;28;20024;-74
2023/09/29 04:20:46;;;;;;;20.00;9.02;;;;;;;;;;5080448;28;20017;-75
2023/09/29 04:23:12;;;;;;;21.88;8.93;;;;;;;;;;5076687;28;20484;-76
2023/09/29 04:25:37;;;;;;;25.63;10.30;;;;;;;;;;5076094;28;20037;-74
2023/09/29 04:28:04;;;;;;;20.15;9.38;;;;;;;;;;5077302;28;20039;-74
2023/09/29 04:30:30;;;;;;;18.35;9.05;;;;;;;;;;5079996;28;20020;-73
2023/09/29 04:32:56;;;;;;;19.23;8.98;;;;;;;;;;5078861;28;20027;-75
2023/09/29 04:35:22;;;;;;;24.85;8.75;;;;;;;;;;5080461;28;20070;-74
2023/09/29 04:37:51;;;;;;;16.00;9.18;;;;;;;;;;5081644;28;20379;-74
2023/09/29 04:40:17;;;;;;;18.42;9.30;;;;;;;;;;5081893;28;20049;-74
2023/09/29 04:42:43;;;;;;;19.67;9.85;;;;;;;;;;5074637;28;20025;-74
2023/09/29 04:45:09;;;;;;;21.75;8.80;;;;;;;;;;5078523;28;20082;-77
2023/09/29 04:47:35;;;;;;;18.30;9.63;;;;;;;;;;5085449;28;20024;-79
2023/09/29 04:50:01;;;;;;;20.92;8.93;;;;;;;;;;5081000;28;20028;-78
2023/09/29 04:52:27;;;;;;;24.42;9.65;;;;;;;;;;5076683;28;20051;-77
2023/09/29 04:54:53;;;;;;;17.65;9.15;;;;;;;;;;5076205;28;20035;-77
2023/09/29 04:57:20;;;;;;;33.72;10.48;;;;;;;;;;5078133;28;20138;-78
2023/09/29 04:59:46;;;;;;;18.83;9.27;;;;;;;;;;5079568;28;20033;-81
2023/09/29 05:02:12;;;;;;;23.35;12.15;;;;;;;;;;5083922;28;20028;-77
2023/09/29 05:04:39;;;;;;;21.58;9.95;;;;;;;;;;5077923;28;20031;-77
2023/09/29 05:07:05;;;;;;;24.98;9.50;;;;;;;;;;5076839;28;20039;-76
2023/09/29 05:09:31;;;;;;;19.75;9.15;;;;;;;;;;5074684;28;20025;-77
2023/09/29 05:11:57;;;;;;;20.20;9.35;;;;;;;;;;5076557;28;20472;-76
2023/09/29 05:14:24;;;;;;;27.42;9.18;;;;;;;;;;5086629;28;20075;-75
2023/09/29 05:16:50;;;;;;;18.42;9.10;;;;;;;;;;5096835;28;20034;-74
2023/09/29 05:19:16;;;;;;;24.13;9.52;;;;;;;;;;5100033;28;20043;-75
2023/09/29 05:21:42;;;;;;;18.20;8.70;;;;;;;;;;5106119;28;20035;-76
2023/09/29 05:24:09;;;;;;;21.75;10.15;;;;;;;;;;5111164;28;20019;-74
2023/09/29 05:26:35;;;;;;;26.17;10.18;;;;;;;;;;5105472;28;20012;-75
2023/09/29 05:29:01;;;;;;;19.33;9.77;;;;;;;;;;5113428;28;20074;-75
2023/09/29 05:31:27;;;;;;;18.20;9.70;;;;;;;;;;5097153;28;20490;-74
2023/09/29 05:33:54;;;;;;;21.02;10.55;;;;;;;;;;5092043;28;20070;-74
2023/09/29 05:36:23;;;;;;;19.60;10.02;;;;;;;;;;5092675;28;20020;-77
2023/09/29 05:38:50;;;;;;;14.68;9.35;;;;;;;;;;5082717;28;20553;-76
2023/09/29 05:41:16;;;;;;;20.80;9.63;;;;;;;;;;5079912;28;20028;-76
2023/09/29 05:43:42;;;;;;;26.08;10.48;;;;;;;;;;5073721;28;20017;-77
2023/09/29 05:46:08;;;;;;;27.23;10.70;;;;;;;;;;5079132;28;20016;-75
2023/09/29 05:48:33;;;;;;;30.95;12.10;;;;;;;;;;5074332;28;20036;-76
2023/09/29 05:51:00;;;;;;;21.27;10.52;;;;;;;;;;5078165;28;20050;-76
2023/09/29 05:53:26;;;;;;;25.00;11.63;;;;;;;;;;5082945;28;20605;-75
2023/09/29 05:55:52;;;;;;;23.63;10.90;;;;;;;;;;5076600;28;20047;-75
2023/09/29 05:58:20;;;;;;;21.75;10.20;;;;;;;;;;5079413;28;20071;-79
2023/09/29 06:00:46;;;;;;;23.45;10.18;;;;;;;;;;5087527;28;20467;-74
2023/09/29 06:03:12;;;;;;;31.67;12.15;;;;;;;;;;5086427;28;20066;-76
2023/09/29 06:05:38;;;;;;;23.30;10.02;;;;;;;;;;5079985;28;20479;-75
2023/09/29 06:08:04;;;;;;;22.77;10.63;;;;;;;;;;5079848;28;20107;-76
2023/09/29 06:10:30;;;;;;;19.67;9.95;;;;;;;;;;5076315;28;20078;-76
2023/09/29 06:12:56;;;;;;;22.40;10.52;;;;;;;;;;5081125;28;20020;-75
2023/09/29 06:15:23;;;;;;;20.60;10.48;;;;;;;;;;5083710;28;20060;-75
2023/09/29 06:17:50;;;;;;;20.95;10.98;;;;;;;;;;5072942;28;20032;-74
2023/09/29 06:20:16;;;;;;;19.65;9.50;;;;;;;;;;5073047;28;20059;-73
2023/09/29 06:22:42;;;;;;;18.27;9.90;;;;;;;;;;5073992;28;20020;-74
2023/09/29 06:25:09;;;;;;;20.33;9.90;;;;;;;;;;5074879;28;20439;-76
2023/09/29 06:27:35;;;;;;;21.25;9.38;;;;;;;;;;5073185;28;20103;-76
2023/09/29 06:30:01;;;;;;;17.52;10.55;;;;;;;;;;5072125;28;20067;-77
2023/09/29 06:32:27;;;;;;;27.15;10.52;;;;;;;;;;5074024;28;20286;-76
2023/09/29 06:34:53;;;;;;;22.73;10.15;;;;;;;;;;5074550;28;20024;-74
2023/09/29 06:37:19;;;;;;;19.83;10.70;;;;;;;;;;5075381;28;20033;-74
2023/09/29 06:39:45;;;;;;;22.85;11.70;;;;;;;;;;5079600;28;20025;-76
2023/09/29 06:42:11;;;;;;;26.23;11.35;;;;;;;;;;5084493;28;20029;-73
2023/09/29 06:44:37;;;;;;;29.83;12.68;;;;;;;;;;5080673;28;20028;-73
2023/09/29 06:47:03;;;;;;;24.83;11.07;;;;;;;;;;5086214;28;20379;-73
2023/09/29 06:49:29;;;;;;;20.85;10.70;;;;;;;;;;5089669;28;20046;-72
2023/09/29 06:51:55;;;;;;;23.38;11.80;;;;;;;;;;5082073;28;20052;-74
2023/09/29 06:54:21;;;;;;;23.92;9.98;;;;;;;;;;5080347;28;20024;-71
2023/09/29 06:56:47;;;;;;;31.45;12.88;;;;;;;;;;5081878;28;20484;-72
2023/09/29 06:59:13;;;;;;;24.45;12.82;;;;;;;;;;5083619;28;20045;-74
2023/09/29 07:01:39;;;;;;;25.75;13.23;;;;;;;;;;5087681;28;20131;-75
2023/09/29 07:04:05;;;;;;;28.15;14.43;;;;;;;;;;5085952;28;20637;-74
2023/09/29 07:06:31;;;;;;;24.45;10.23;;;;;;;;;;5096172;28;20160;-71
2023/09/29 07:08:57;;;;;;;25.42;11.45;;;;;;;;;;5092858;28;20059;-71
2023/09/29 07:11:23;;;;;;;24.25;10.60;;;;;;;;;;5074982;28;20032;-72
2023/09/29 07:13:49;;;;;;;27.45;13.85;;;;;;;;;;5074772;28;20048;-72
2023/09/29 07:16:18;;;;;;;29.98;10.00;;;;;;;;;;5075272;28;20089;-75
2023/09/29 07:18:44;;;;;;;41.38;21.92;;;;;;;;;;5075469;28;20021;-74
2023/09/29 07:21:10;;;;;;;19.00;10.13;;;;;;;;;;5074729;28;20053;-71
2023/09/29 07:23:36;;;;;;;20.58;10.48;;;;;;;;;;5073808;28;20073;-72
2023/09/29 07:26:02;;;;;;;25.95;13.20;;;;;;;;;;5073824;28;20040;-72
2023/09/29 07:28:28;;;;;;;26.08;10.48;;;;;;;;;;5073752;28;20033;-72
2023/09/29 07:30:54;;;;;;;27.95;11.38;;;;;;;;;;5074386;28;20159;-72
2023/09/29 07:33:20;;;;;;;23.00;10.00;;;;;;;;;;5074379;28;20032;-75
2023/09/29 07:35:46;;;;;;;21.90;8.80;;;;;;;;;;5077773;28;20025;-74
2023/09/29 07:38:13;;;;;;;22.10;9.80;;;;;;;;;;5077974;28;20098;-77
2023/09/29 07:40:39;;;;;;;15.55;8.10;;;;;;;;;;5079441;28;20467;-75
2023/09/29 07:43:06;;;;;;;27.70;9.50;;;;;;;;;;5083645;28;20027;-74
2023/09/29 07:45:32;;;;;;;28.52;8.85;;;;;;;;;;5078443;28;20031;-76
2023/09/29 07:47:59;;;;;;;17.25;8.02;;;;;;;;;;5075088;28;20024;-74
2023/09/29 07:50:25;;;;;;;19.83;8.00;;;;;;;;;;5075818;28;20028;-73
2023/09/29 07:52:51;;;;;;;24.27;8.23;;;;;;;;;;5073189;28;20475;-75
2023/09/29 07:55:17;;;;;;;26.65;8.70;;;;;;;;;;5075824;28;20135;-74
2023/09/29 07:57:43;;;;;;;19.48;8.70;;;;;;;;;;5074166;28;20021;-74
2023/09/29 08:00:10;;;;;;;23.30;8.50;;;;;;;;;;5070476;28;20029;-74
2023/09/29 08:02:36;;;;;;;15.68;8.35;;;;;;;;;;5055909;28;20017;-75
2023/09/29 08:05:02;;;;;;;20.25;8.32;;;;;;;;;;5055164;28;20028;-73
2023/09/29 08:07:28;;;;;;;18.75;7.90;;;;;;;;;;5066180;28;20025;-76
2023/09/29 08:09:55;;;;;;;19.95;8.05;;;;;;;;;;5074162;28;20101;-75
2023/09/29 08:12:21;;;;;;;18.90;8.05;;;;;;;;;;5055502;28;20105;-75
2023/09/29 08:14:47;;;;;;;22.35;8.43;;;;;;;;;;5055550;28;20063;-75
2023/09/29 08:17:13;;;;;;;27.73;8.07;;;;;;;;;;5056040;28;20044;-72
2023/09/29 08:19:39;;;;;;;24.45;8.90;;;;;;;;;;5059098;28;20045;-78
2023/09/29 08:22:05;;;;;;;25.40;8.68;;;;;;;;;;5054565;28;20047;-74
2023/09/29 08:24:32;;;;;;;23.35;8.55;;;;;;;;;;5056195;28;20035;-74
2023/09/29 08:27:00;;;;;;;18.80;8.50;;;;;;;;;;5053279;28;20042;-75
2023/09/29 08:29:26;;;;;;;17.38;8.07;;;;;;;;;;5052390;28;20036;-73
2023/09/29 08:31:53;;;;;;;25.27;7.85;;;;;;;;;;5052676;28;20048;-75
2023/09/29 08:34:19;;;;;;;19.75;8.40;;;;;;;;;;5051389;28;20117;-77
2023/09/29 08:36:46;;;;;;;22.98;7.43;;;;;;;;;;5066380;28;20082;-73
2023/09/29 08:39:12;;;;;;;27.13;8.30;;;;;;;;;;5072467;28;20037;-72
2023/09/29 08:41:41;;;;;;;17.45;8.02;;;;;;;;;;5072068;28;20024;-73
2023/09/29 08:44:10;;;;;;;21.67;8.35;;;;;;;;;;5070667;28;20027;-73
2023/09/29 08:46:40;;;;;;;18.98;7.65;;;;;;;;;;5071703;28;20054;-72
2023/09/29 08:49:08;;;;;;;15.77;6.63;;;;;;;;;;5071004;28;20048;-74
2023/09/29 08:51:36;;;;;;;18.63;7.57;;;;;;;;;;5070651;28;20387;-75
2023/09/29 08:54:03;;;;;;;18.15;7.07;;;;;;;;;;5072449;28;20428;-72
2023/09/29 08:56:30;;;;;;;16.33;6.63;;;;;;;;;;5072362;28;20036;-74
2023/09/29 08:58:56;;;;;;;17.83;7.60;;;;;;;;;;5072311;28;20020;-77
2023/09/29 09:01:23;;;;;;;24.52;7.50;;;;;;;;;;5073188;28;20031;-78
2023/09/29 09:03:49;;;;;;;21.52;7.18;;;;;;;;;;5073086;28;20024;-78
2023/09/29 09:06:21;;;;;;;14.80;6.53;;;;;;;;;;5073693;28;20032;-77
2023/09/29 09:08:48;;;;;;;23.42;7.28;;;;;;;;;;5073046;28;20028;-77
2023/09/29 09:11:14;;;;;;;22.50;6.43;;;;;;;;;;5073242;28;20386;-74
2023/09/29 09:13:40;;;;;;;13.90;6.07;;;;;;;;;;5071904;28;20028;-77
2023/09/29 09:16:07;;;;;;;16.92;7.13;;;;;;;;;;5071787;28;20028;-76
2023/09/29 09:18:33;;;;;;;21.17;7.60;;;;;;;;;;5071971;28;20098;-78
2023/09/29 09:20:59;;;;;;;20.85;6.30;;;;;;;;;;5072158;28;20035;-76
2023/09/29 09:23:37;;;;;;;16.75;6.45;;;;;;;;;;5071776;28;20029;-74
2023/09/29 09:26:11;;;;;;;15.80;6.72;;;;;;;;;;5071650;28;20100;-72
2023/09/29 09:28:37;;;;;;;22.83;7.05;;;;;;;;;;5071606;28;20131;-74
2023/09/29 09:31:03;;;;;;;19.67;6.53;;;;;;;;;;5076862;28;20099;-75
2023/09/29 09:33:31;;;;;;;14.85;6.35;;;;;;;;;;5074634;28;20510;-75
2023/09/29 09:36:09;;;;;;;12.25;6.38;;;;;;;;;;5077468;28;20056;-74
2023/09/29 09:38:35;;;;;;;15.18;6.20;;;;;;;;;;5074720;28;20501;-75
2023/09/29 09:41:01;;;;;;;17.05;5.45;;;;;;;;;;5073686;28;20518;-72
2023/09/29 09:43:29;;;;;;;14.73;6.13;;;;;;;;;;5071707;28;20023;-73
2023/09/29 09:46:03;;;;;;;12.48;5.47;;;;;;;;;;5071625;28;20023;-73
2023/09/29 09:48:35;;;;;;;14.38;5.90;;;;;;;;;;5071460;28;20153;-72
2023/09/29 09:51:03;;;;;;;10.48;5.45;;;;;;;;;;5071746;28;20021;-72
2023/09/29 09:53:31;;;;;;;16.60;5.70;;;;;;;;;;5071694;28;20025;-72
2023/09/29 09:56:01;;;;;;;14.57;5.18;;;;;;;;;;5078024;28;20028;-73
2023/09/29 09:58:28;;;;;;;17.30;5.70;;;;;;;;;;5071499;28;20070;-74
2023/09/29 10:00:55;;;;;;;19.95;6.05;;;;;;;;;;5078220;28;20016;-74
2023/09/29 10:03:22;;;;;;;13.07;4.90;;;;;;;;;;5070798;28;20131;-74
2023/09/29 10:05:52;;;;;;;16.00;5.57;;;;;;;;;;5070632;28;20071;-72
2023/09/29 10:08:29;;;;;;;16.23;5.78;;;;;;;;;;5070902;28;20491;-73
2023/09/29 10:11:09;;;;;;;19.48;5.35;;;;;;;;;;5071863;28;20046;-74
2023/09/29 10:13:38;;;;;;;28.20;7.07;;;;;;;;;;5075342;28;20016;-73
2023/09/29 10:16:07;;;;;;;17.35;4.85;;;;;;;;;;5079307;28;20028;-74
2023/09/29 10:18:34;;;;;;;15.48;4.63;;;;;;;;;;5087788;28;20039;-74
2023/09/29 10:21:06;;;;;;;12.65;4.80;;;;;;;;;;5089947;28;20020;-73
2023/09/29 10:23:44;;;;;;;17.02;4.70;;;;;;;;;;5089435;28;20021;-74
2023/09/29 10:26:11;;;;;;;12.88;4.30;;;;;;;;;;5071962;28;20019;-75
2023/09/29 10:28:40;;;;;;;10.23;4.20;;;;;;;;;;5077187;28;20036;-75
2023/09/29 10:31:13;;;;;;;20.45;4.53;;;;;;;;;;5078434;28;20141;-74
2023/09/29 10:33:55;;;;;;;15.93;4.65;;;;;;;;;;5079712;28;20021;-75
2023/09/29 10:36:23;;;;;;;20.20;4.78;;;;;;;;;;5078349;28;20035;-74
2023/09/29 10:38:49;;;;;;;13.13;4.20;;;;;;;;;;5083693;28;20040;-75
2023/09/29 10:41:15;;;;;;;12.32;3.83;;;;;;;;;;5088061;28;20072;-75
2023/09/29 10:43:49;;;;;;;18.85;4.15;;;;;;;;;;5076817;28;20099;-74
2023/09/29 10:46:16;;;;;;;9.63;4.47;;;;;;;;;;5076357;28;20024;-74
2023/09/29 10:48:49;;;;;;;10.27;4.35;;;;;;;;;;5075591;28;20052;-74
2023/09/29 10:51:28;;;;;;;14.52;5.63;;;;;;;;;;5076353;28;20056;-75
2023/09/29 10:53:55;;;;;;;15.93;4.70;;;;;;;;;;5076714;28;20020;-75
2023/09/29 10:56:21;;;;;;;13.25;4.60;;;;;;;;;;5077737;28;20031;-75
2023/09/29 10:58:49;;;;;;;13.38;3.50;;;;;;;;;;5082472;28;20055;-74
2023/09/29 11:01:27;;;;;;;10.00;3.25;;;;;;;;;;5086287;28;20020;-75
2023/09/29 11:03:54;;;;;;;9.48;3.60;;;;;;;;;;5085702;28;20008;-75
2023/09/29 11:06:20;;;;;;;21.35;4.47;;;;;;;;;;5080655;28;20475;-74
2023/09/29 11:08:57;;;;;;;8.32;3.40;;;;;;;;;;5073652;28;20472;-75
2023/09/29 11:11:25;;;;;;;9.52;3.28;;;;;;;;;;5075362;28;20036;-76
2023/09/29 11:13:58;;;;;;;18.70;4.07;;;;;;;;;;5077350;28;20117;-75
2023/09/29 11:16:27;;;;;;;10.73;3.90;;;;;;;;;;5078314;28;20029;-75
2023/09/29 11:18:56;;;;;;;11.48;4.18;;;;;;;;;;5076247;28;20092;-73
2023/09/29 11:21:34;;;;;;;8.35;4.20;;;;;;;;;;5076858;28;20020;-75
2023/09/29 11:24:05;;;;;;;10.05;3.53;;;;;;;;;;5075894;28;20025;-74
2023/09/29 11:26:31;;;;;;;8.52;3.10;;;;;;;;;;5076134;28;20012;-74
2023/09/29 11:28:58;;;;;;;9.35;3.40;;;;;;;;;;5074009;28;20086;-73
2023/09/29 11:31:25;;;;;;;11.32;3.40;;;;;;;;;;5073113;28;20031;-74
2023/09/29 11:33:51;;;;;;;10.32;3.05;;;;;;;;;;5073293;28;20029;-74
2023/09/29 11:36:24;;;;;;;5.68;2.83;;;;;;;;;;5072800;28;20056;-75
2023/09/29 11:38:51;;;;;;;10.97;3.30;;;;;;;;;;5076150;28;20360;-75
2023/09/29 11:41:17;;;;;;;11.00;3.50;;;;;;;;;;5077718;28;20263;-74
2023/09/29 11:43:44;;;;;;;11.32;3.08;;;;;;;;;;5087211;28;20100;-74
2023/09/29 11:46:10;;;;;;;6.57;2.70;;;;;;;;;;5092691;28;20013;-73
2023/09/29 11:48:36;;;;;;;14.60;3.53;;;;;;;;;;5086819;28;20025;-73
2023/09/29 11:51:03;;;;;;;8.48;2.90;;;;;;;;;;5081955;28;20033;-73
2023/09/29 11:53:30;;;;;;;11.35;2.65;;;;;;;;;;5085675;28;20024;-75
2023/09/29 11:55:56;;;;;;;7.78;3.08;;;;;;;;;;5077603;28;20017;-73
2023/09/29 11:58:25;;;;;;;8.38;3.30;;;;;;;;;;5084593;28;20029;-76
2023/09/29 12:00:52;;;;;;;15.07;3.78;;;;;;;;;;5085791;28;20024;-73
2023/09/29 12:03:21;;;;;;;10.88;3.22;;;;;;;;;;5076836;28;20487;-75
2023/09/29 12:05:49;;;;;;;9.15;3.15;;;;;;;;;;5073210;28;20016;-73
2023/09/29 12:08:15;;;;;;;12.25;3.50;;;;;;;;;;5085228;28;20510;-78
2023/09/29 12:10:42;;;;;;;7.68;3.28;;;;;;;;;;5087683;28;20044;-78
2023/09/29 12:13:15;;;;;;;7.75;3.05;;;;;;;;;;5090712;28;20005;-75
2023/09/29 12:15:42;;;;;;;7.70;2.95;;;;;;;;;;5089984;28;20035;-78
2023/09/29 12:18:08;;;;;;;7.68;2.80;;;;;;;;;;5092628;28;20020;-79
2023/09/29 12:20:35;;;;;;;13.05;3.50;;;;;;;;;;5093341;28;20079;-77
2023/09/29 12:23:01;;;;;;;8.77;3.38;;;;;;;;;;5089452;28;20035;-80
2023/09/29 12:25:28;;;;;;;9.48;2.92;;;;;;;;;;5078043;28;20020;-82
2023/09/29 12:27:54;;;;;;;9.25;2.58;;;;;;;;;;5077458;28;20028;-78
2023/09/29 12:30:22;;;;;;;7.68;3.65;;;;;;;;;;5080804;28;20056;-77
2023/09/29 12:32:48;;;;;;;15.60;3.13;;;;;;;;;;5059523;28;20040;-75
2023/09/29 12:35:14;;;;;;;8.05;2.90;;;;;;;;;;5075758;28;20106;-75
2023/09/29 12:37:42;;;;;;;12.20;3.50;;;;;;;;;;5076093;28;20020;-76
2023/09/29 12:40:12;;;;;;;9.43;3.53;;;;;;;;;;5072072;28;20048;-76
2023/09/29 12:42:42;;;;;;;9.65;2.97;;;;;;;;;;5081578;28;20035;-74
2023/09/29 12:45:10;;;;;;;11.23;2.70;;;;;;;;;;5071025;28;20032;-74
2023/09/29 12:47:36;;;;;;;6.57;3.00;;;;;;;;;;5077256;28;20027;-75
2023/09/29 12:50:02;;;;;;;7.47;2.75;;;;;;;;;;5072540;28;20029;-74
2023/09/29 12:52:28;;;;;;;7.97;3.30;;;;;;;;;;5076483;28;20031;-75
2023/09/29 12:54:56;;;;;;;9.35;2.80;;;;;;;;;;5077123;28;20016;-74
2023/09/29 12:57:22;;;;;;;10.40;2.88;;;;;;;;;;5076184;28;20027;-73
2023/09/29 12:59:48;;;;;;;7.80;2.95;;;;;;;;;;5086539;28;20028;-74
2023/09/29 13:02:16;;;;;;;8.35;2.60;;;;;;;;;;5084533;28;20036;-75
2023/09/29 13:04:43;;;;;;;9.00;3.20;;;;;;;;;;5086551;28;20031;-75
2023/09/29 13:07:09;;;;;;;13.60;3.55;;;;;;;;;;5082151;28;20062;-75
2023/09/29 13:09:36;;;;;;;8.23;3.20;;;;;;;;;;5093475;28;20048;-74
2023/09/29 13:12:04;;;;;;;7.72;3.58;;;;;;;;;;5083408;28;20047;-74
2023/09/29 13:14:30;;;;;;;6.93;3.00;;;;;;;;;;5082106;28;20070;-74
2023/09/29 13:16:56;;;;;;;7.97;3.30;;;;;;;;;;5077656;28;20020;-74
2023/09/29 13:19:22;;;;;;;11.00;2.60;;;;;;;;;;5076465;28;20095;-74
2023/09/29 13:21:48;;;;;;;12.50;3.30;;;;;;;;;;5076204;28;20474;-76
2023/09/29 13:24:14;;;;;;;7.45;3.45;;;;;;;;;;5081722;28;20071;-76
2023/09/29 13:26:41;;;;;;;11.80;4.70;;;;;;;;;;5075153;28;20361;-77
2023/09/29 13:29:07;;;;;;;16.52;3.05;;;;;;;;;;5080251;28;20194;-76
2023/09/29 13:31:34;;;;;;;6.95;3.28;;;;;;;;;;5077836;28;20028;-77
2023/09/29 13:34:00;;;;;;;5.70;2.67;;;;;;;;;;5078262;28;20173;-77
2023/09/29 13:36:26;;;;;;;10.88;3.20;;;;;;;;;;5079075;28;20107;-76
2023/09/29 13:38:52;;;;;;;13.25;2.90;;;;;;;;;;5076102;28;20060;-78
2023/09/29 13:41:18;;;;;;;8.98;3.00;;;;;;;;;;5080137;28;20059;-76
2023/09/29 13:43:44;;;;;;;8.30;2.90;;;;;;;;;;5081772;28;20040;-75
2023/09/29 13:46:10;;;;;;;4.07;2.70;;;;;;;;;;5083267;28;20048;-76
2023/09/29 13:48:37;;;;;;;9.82;3.30;;;;;;;;;;5076427;28;20036;-75
2023/09/29 13:51:04;;;;;;;10.93;3.20;;;;;;;;;;5081102;28;20027;-76
2023/09/29 13:53:30;;;;;;;9.70;3.38;;;;;;;;;;5084768;28;20036;-76
2023/09/29 13:55:56;;;;;;;9.13;2.83;;;;;;;;;;5085814;28;20080;-75
2023/09/29 13:58:22;;;;;;;9.02;2.90;;;;;;;;;;5102261;28;20035;-78
2023/09/29 14:00:52;;;;;;;6.35;3.08;;;;;;;;;;5109781;28;20019;-77
2023/09/29 14:03:18;;;;;;;5.85;3.20;;;;;;;;;;5118006;28;20032;-73
2023/09/29 14:05:45;;;;;;;7.43;3.30;;;;;;;;;;5111260;28;20119;-75
2023/09/29 14:08:11;;;;;;;18.10;3.45;;;;;;;;;;5101520;28;20028;-75
2023/09/29 14:10:37;;;;;;;14.32;4.47;;;;;;;;;;5069646;28;20078;-76
2023/09/29 14:13:03;;;;;;;7.88;3.03;;;;;;;;;;5063674;28;20032;-75
2023/09/29 14:15:32;;;;;;;9.23;3.28;;;;;;;;;;5065839;28;20040;-74
2023/09/29 14:17:59;;;;;;;11.23;2.92;;;;;;;;;;5082029;28;20067;-75
2023/09/29 14:20:25;;;;;;;11.13;3.08;;;;;;;;;;5076531;28;20064;-77
2023/09/29 14:22:51;;;;;;;13.30;3.35;;;;;;;;;;5062889;28;20082;-77
2023/09/29 14:25:17;;;;;;;10.52;4.03;;;;;;;;;;5064076;28;20033;-77
2023/09/29 14:27:43;;;;;;;10.32;3.40;;;;;;;;;;5063748;28;20419;-78
2023/09/29 14:30:10;;;;;;;15.98;3.63;;;;;;;;;;5062807;28;20090;-76